createdAt,value
2023-01-10T00:00:32.318Z,101472.34
2023-01-10T00:03:00.309Z,101474.16
2023-01-10T00:05:28.301Z,101475.09
2023-01-10T00:07:59.163Z,101464.47
2023-01-10T00:10:27.095Z,101474.28
2023-01-10T00:13:12.283Z,101470.78
2023-01-10T00:15:40.243Z,101441.38
2023-01-10T00:18:08.166Z,101437.94
2023-01-10T00:20:36.109Z,101468.25
2023-01-10T00:23:07.156Z,101466.47
2023-01-10T00:25:36.270Z,101463.69
2023-01-10T00:28:10.929Z,101464.47
2023-01-10T00:30:39.813Z,101473.34
2023-01-10T00:33:07.819Z,101466.34
2023-01-10T00:35:35.760Z,101472.59
2023-01-10T00:38:06.804Z,101468.97
2023-01-10T00:40:34.728Z,101454.00
2023-01-10T00:43:19.953Z,101463.50
2023-01-10T00:45:47.865Z,101457.31
2023-01-10T00:48:15.833Z,101448.53
2023-01-10T00:50:44.016Z,101444.91
2023-01-10T00:53:13.311Z,101433.47
2023-01-10T00:55:41.714Z,101432.44
2023-01-10T00:58:11.698Z,101429.78
2023-01-10T01:00:39.706Z,101426.31
2023-01-10T01:03:09.018Z,101417.53
2023-01-10T01:05:41.588Z,101422.69
2023-01-10T01:08:09.452Z,101420.03
2023-01-10T01:10:38.746Z,101421.94
2023-01-10T01:13:08.237Z,101417.59
2023-01-10T01:15:36.211Z,101404.66
2023-01-10T01:18:04.266Z,101413.31
2023-01-10T01:20:32.150Z,101408.94
2023-01-10T01:23:00.821Z,101398.31
2023-01-10T01:25:28.730Z,101390.38
2023-01-10T01:27:58.086Z,101389.53
2023-01-10T01:30:26.033Z,101392.13
2023-01-10T01:32:53.923Z,101389.41
2023-01-10T01:35:22.119Z,101396.31
2023-01-10T01:37:50.010Z,101381.28
2023-01-10T01:40:18.437Z,101383.06
2023-01-10T01:42:46.825Z,101377.63
2023-01-10T01:45:35.433Z,101383.78
2023-01-10T01:48:08.706Z,101366.09
2023-01-10T01:50:38.295Z,101358.97
2023-01-10T01:53:08.809Z,101364.25
2023-01-10T01:55:36.731Z,101358.88
2023-01-10T01:58:06.607Z,101342.28
2023-01-10T02:00:35.914Z,101341.22
2023-01-10T02:03:03.861Z,101333.16
2023-01-10T02:05:31.882Z,101333.06
2023-01-10T02:07:59.880Z,101329.53
2023-01-10T02:10:30.962Z,101325.13
2023-01-10T02:13:01.225Z,101295.50
2023-01-10T02:15:29.120Z,101320.53
2023-01-10T02:17:58.438Z,101310.75
2023-01-10T02:20:26.767Z,101306.19
2023-01-10T02:23:29.404Z,101300.94
2023-01-10T02:26:31.944Z,101292.81
2023-01-10T02:29:16.349Z,101298.16
2023-01-10T02:32:23.453Z,101295.47
2023-01-10T02:35:01.960Z,101244.88
2023-01-10T02:37:36.442Z,101284.59
2023-01-10T02:40:06.028Z,101283.72
2023-01-10T02:42:38.003Z,101280.84
2023-01-10T02:45:08.078Z,101257.13
2023-01-10T02:47:38.508Z,101271.84
2023-01-10T02:50:26.715Z,101269.16
2023-01-10T02:52:54.623Z,101257.56
2023-01-10T02:55:22.734Z,101244.34
2023-01-10T02:57:51.342Z,101239.84
2023-01-10T03:00:32.102Z,101213.31
2023-01-10T03:03:14.422Z,101211.69
2023-01-10T03:05:53.371Z,101200.09
2023-01-10T03:08:27.336Z,101191.41
2023-01-10T03:10:57.856Z,101193.28
2023-01-10T03:13:27.868Z,101192.41
2023-01-10T03:15:55.852Z,101188.91
2023-01-10T03:18:26.469Z,101195.94
2023-01-10T03:20:54.374Z,101192.38
2023-01-10T03:23:22.312Z,101184.75
2023-01-10T03:25:50.666Z,101179.25
2023-01-10T03:28:20.519Z,101160.03
2023-01-10T03:30:50.709Z,101153.69
2023-01-10T03:33:19.853Z,101142.44
2023-01-10T03:35:54.439Z,101149.41
2023-01-10T03:38:25.293Z,101153.75
2023-01-10T03:40:56.595Z,101158.22
2023-01-10T03:43:45.159Z,101141.22
2023-01-10T03:46:14.333Z,101145.66
2023-01-10T03:48:43.705Z,101138.56
2023-01-10T03:51:12.995Z,101134.84
2023-01-10T03:53:40.934Z,101125.09
2023-01-10T03:56:09.102Z,101127.13
2023-01-10T03:58:37.002Z,101114.78
2023-01-10T04:01:05.034Z,101117.56
2023-01-10T04:03:32.954Z,101106.94
2023-01-10T04:06:00.892Z,101098.16
2023-01-10T04:08:30.171Z,101087.44
2023-01-10T04:10:58.092Z,101077.13
2023-01-10T04:13:26.025Z,101072.59
2023-01-10T04:15:53.990Z,101065.50
2023-01-10T04:18:21.934Z,101064.75
2023-01-10T04:20:52.127Z,101051.53
2023-01-10T04:23:20.208Z,101055.97
2023-01-10T04:25:49.686Z,101043.63
2023-01-10T04:28:17.560Z,101032.09
2023-01-10T04:30:45.510Z,101028.56
2023-01-10T04:33:13.731Z,101013.50
2023-01-10T04:35:41.714Z,101013.44
2023-01-10T04:38:09.622Z,101012.69
2023-01-10T04:40:37.516Z,101013.44
2023-01-10T04:43:06.827Z,100995.63
2023-01-10T04:45:34.753Z,101003.66
2023-01-10T04:48:02.632Z,100997.22
2023-01-10T04:50:30.546Z,100972.47
2023-01-10T04:52:58.428Z,100961.63
2023-01-10T04:55:26.427Z,100956.25
2023-01-10T04:57:54.290Z,100948.19
2023-01-10T05:00:23.998Z,100937.44
2023-01-10T05:02:56.657Z,100933.00
2023-01-10T05:05:24.664Z,100932.94
2023-01-10T05:07:52.606Z,100914.50
2023-01-10T05:10:20.687Z,100934.53
2023-01-10T05:12:48.598Z,100929.88
2023-01-10T05:15:16.580Z,100918.97
2023-01-10T05:17:45.859Z,100920.66
2023-01-10T05:20:14.450Z,100923.03
2023-01-10T05:22:42.393Z,100926.44
2023-01-10T05:25:11.030Z,100920.88
2023-01-10T05:27:42.149Z,100919.03
2023-01-10T05:30:12.267Z,100910.13
2023-01-10T05:32:40.213Z,100899.41
2023-01-10T05:35:10.304Z,100893.09
2023-01-10T05:37:38.299Z,100888.56
2023-01-10T05:40:07.394Z,100885.78
2023-01-10T05:42:35.307Z,100880.47
2023-01-10T05:45:03.458Z,100869.81
2023-01-10T05:47:31.393Z,100854.75
2023-01-10T05:49:59.275Z,100851.97
2023-01-10T05:52:28.508Z,100837.28
2023-01-10T05:54:56.451Z,100850.97
2023-01-10T05:57:24.742Z,100833.97
2023-01-10T05:59:52.662Z,100830.31
2023-01-10T06:02:20.648Z,100825.78
2023-01-10T06:04:48.614Z,100787.66
2023-01-10T06:07:16.532Z,100813.28
2023-01-10T06:09:46.759Z,100818.38
2023-01-10T06:12:14.731Z,100811.22
2023-01-10T06:14:42.625Z,100814.69
2023-01-10T06:17:10.899Z,100804.72
2023-01-10T06:19:38.792Z,100807.09
2023-01-10T06:22:06.685Z,100811.44
2023-01-10T06:24:34.605Z,100794.66
2023-01-10T06:27:03.873Z,100799.84
2023-01-10T06:29:31.863Z,100794.38
2023-01-10T06:32:00.350Z,100780.00
2023-01-10T06:34:28.245Z,100775.47
2023-01-10T06:36:56.247Z,100770.03
2023-01-10T06:39:24.258Z,100767.25
2023-01-10T06:41:52.132Z,100746.78
2023-01-10T06:44:21.440Z,100736.31
2023-01-10T06:46:49.342Z,100737.88
2023-01-10T06:49:17.278Z,100725.69
2023-01-10T06:51:45.212Z,100714.44
2023-01-10T06:54:13.094Z,100711.13
2023-01-10T06:56:41.103Z,100682.16
2023-01-10T06:59:09.951Z,100693.84
2023-01-10T07:01:39.358Z,100700.22
2023-01-10T07:04:07.363Z,100691.38
2023-01-10T07:06:38.359Z,100680.81
2023-01-10T07:09:06.611Z,100674.66
2023-01-10T07:11:34.581Z,100673.03
2023-01-10T07:14:02.676Z,100674.59
2023-01-10T07:16:30.666Z,100685.88
2023-01-10T07:19:00.988Z,100681.38
2023-01-10T07:21:29.042Z,100676.88
2023-01-10T07:23:57.085Z,100680.19
2023-01-10T07:26:25.022Z,100677.22
2023-01-10T07:28:52.950Z,100669.16
2023-01-10T07:31:22.843Z,100654.84
2023-01-10T07:33:51.887Z,100646.00
2023-01-10T07:36:21.203Z,100651.97
2023-01-10T07:38:49.136Z,100648.44
2023-01-10T07:41:17.077Z,100663.31
2023-01-10T07:43:44.985Z,100667.53
2023-01-10T07:46:16.884Z,100662.06
2023-01-10T07:48:46.279Z,100653.84
2023-01-10T07:51:14.222Z,100660.41
2023-01-10T07:53:43.487Z,100650.63
2023-01-10T07:56:11.417Z,100652.19
2023-01-10T07:58:39.318Z,100644.44
2023-01-10T08:01:07.877Z,100646.97
2023-01-10T08:03:36.800Z,100647.16
2023-01-10T08:06:05.844Z,100635.38
2023-01-10T08:08:34.526Z,100643.50
2023-01-10T08:11:04.023Z,100639.97
2023-01-10T08:13:32.071Z,100661.19
2023-01-10T08:16:00.062Z,100637.81
2023-01-10T08:18:28.033Z,100636.00
2023-01-10T08:20:55.987Z,100640.56
2023-01-10T08:23:23.920Z,100620.00
2023-01-10T08:25:52.359Z,100612.44
2023-01-10T08:28:21.695Z,100638.81
2023-01-10T08:30:50.574Z,100622.59
2023-01-10T08:33:19.002Z,100620.50
2023-01-10T08:35:46.952Z,100621.00
2023-01-10T08:38:15.120Z,100635.06
2023-01-10T08:40:44.064Z,100618.13
2023-01-10T08:43:12.699Z,100605.91
2023-01-10T08:45:42.077Z,100623.50
2023-01-10T08:48:10.770Z,100616.16
2023-01-10T08:50:38.900Z,100635.34
2023-01-10T08:53:07.245Z,100636.22
2023-01-10T08:55:36.342Z,100631.47
2023-01-10T08:58:04.303Z,100632.03
2023-01-10T09:00:32.276Z,100633.78
2023-01-10T09:03:01.716Z,100622.97
2023-01-10T09:05:29.704Z,100620.00
2023-01-10T09:07:59.355Z,100621.53
2023-01-10T09:10:27.341Z,100618.69
2023-01-10T09:12:59.774Z,100621.81
2023-01-10T09:15:28.933Z,100628.03
2023-01-10T09:17:57.075Z,100630.50
2023-01-10T09:20:29.277Z,100604.13
2023-01-10T09:22:57.507Z,100623.16
2023-01-10T09:25:25.779Z,100621.13
2023-01-10T09:27:58.056Z,100623.22
2023-01-10T09:30:26.230Z,100625.53
2023-01-10T09:32:54.201Z,100619.22
2023-01-10T09:35:22.254Z,100615.59
2023-01-10T09:37:51.533Z,100621.88
2023-01-10T09:40:22.908Z,100609.56
2023-01-10T09:42:57.223Z,100613.84
2023-01-10T09:45:30.005Z,100616.34
2023-01-10T09:48:00.237Z,100614.44
2023-01-10T09:55:46.973Z,100623.59
2023-01-10T09:58:16.659Z,100613.84
2023-01-10T10:00:46.136Z,100618.16
2023-01-10T10:03:22.899Z,100617.19
2023-01-10T10:05:54.053Z,100627.22
2023-01-10T10:08:26.969Z,100607.75
2023-01-10T10:11:04.984Z,100624.44
2023-01-10T10:13:37.887Z,100608.50
2023-01-10T10:16:10.921Z,100600.00
2023-01-10T10:18:43.254Z,100640.22
2023-01-10T10:21:17.431Z,100609.81
2023-01-10T10:24:03.078Z,100622.81
2023-01-10T10:26:34.633Z,100621.09
2023-01-10T10:29:26.503Z,100622.69
2023-01-10T10:32:26.008Z,100619.19
2023-01-10T10:34:54.892Z,100626.53
2023-01-10T10:37:25.114Z,100621.47
2023-01-10T10:39:54.924Z,100616.41
2023-01-10T10:42:24.210Z,100612.41
2023-01-10T10:44:54.008Z,100603.44
2023-01-10T10:47:23.033Z,100606.22
2023-01-10T10:49:52.314Z,100598.84
2023-01-10T10:52:24.821Z,100608.59
2023-01-10T10:54:53.015Z,100577.03
2023-01-10T10:57:21.575Z,100585.50
2023-01-10T10:59:54.951Z,100561.09
2023-01-10T11:02:25.383Z,100561.81
2023-01-10T11:04:54.965Z,100566.69
2023-01-10T11:07:23.384Z,100569.06
2023-01-10T11:09:53.715Z,100575.16
2023-01-10T11:12:22.709Z,100563.94
2023-01-10T11:14:52.949Z,100568.25
2023-01-10T11:17:25.906Z,100570.06
2023-01-10T11:19:58.429Z,100548.31
2023-01-10T11:22:26.774Z,100527.84
2023-01-10T11:24:56.469Z,100542.97
2023-01-10T11:27:26.159Z,100556.78
2023-01-10T11:29:57.566Z,100541.25
2023-01-10T11:32:30.579Z,100539.34
2023-01-10T11:34:59.785Z,100528.22
2023-01-10T11:37:29.389Z,100523.69
2023-01-10T11:40:16.567Z,100525.31
2023-01-10T11:42:44.760Z,100507.53
2023-01-10T11:45:23.687Z,100502.59
2023-01-10T11:47:54.545Z,100524.78
2023-01-10T11:50:23.784Z,100507.84
2023-01-10T11:52:51.778Z,100490.56
2023-01-10T11:55:21.115Z,100474.19
2023-01-10T11:57:56.383Z,100483.94
2023-01-10T12:00:32.031Z,100487.38
2023-01-10T12:02:59.906Z,100494.84
2023-01-10T12:05:28.198Z,100491.84
2023-01-10T12:07:56.721Z,100490.34
2023-01-10T12:10:25.967Z,100455.16
2023-01-10T12:12:57.901Z,100469.94
2023-01-10T12:15:28.858Z,100461.34
2023-01-10T12:17:57.143Z,100470.00
2023-01-10T12:20:25.074Z,100474.88
2023-01-10T12:22:54.483Z,100441.69
2023-01-10T12:25:24.093Z,100452.41
2023-01-10T12:27:52.469Z,100428.34
2023-01-10T12:30:23.189Z,100435.09
2023-01-10T12:33:02.834Z,100427.25
2023-01-10T12:35:39.543Z,100421.34
2023-01-10T12:38:16.784Z,100419.47
2023-01-10T12:40:46.559Z,100430.88
2023-01-10T12:43:33.930Z,100423.03
2023-01-10T12:46:21.885Z,100437.78
2023-01-10T12:48:57.706Z,100419.06
2023-01-10T12:51:26.977Z,100428.25
2023-01-10T12:53:56.437Z,100420.53
2023-01-10T12:56:24.430Z,100429.53
2023-01-10T12:58:56.196Z,100415.50
2023-01-10T13:01:25.699Z,100419.25
2023-01-10T13:03:56.773Z,100406.28
2023-01-10T13:06:27.954Z,100415.41
2023-01-10T13:08:58.086Z,100419.16
2023-01-10T13:11:26.336Z,100404.25
2023-01-10T13:13:56.140Z,100384.84
2023-01-10T13:16:28.370Z,100410.91
2023-01-10T13:19:06.623Z,100391.53
2023-01-10T13:21:34.997Z,100399.19
2023-01-10T13:24:03.623Z,100387.56
2023-01-10T13:26:53.550Z,100367.94
2023-01-10T13:29:22.908Z,100357.41
2023-01-10T13:31:57.207Z,100372.22
2023-01-10T13:34:27.698Z,100373.91
2023-01-10T13:37:02.691Z,100356.13
2023-01-10T13:39:32.551Z,100354.66
2023-01-10T13:42:46.098Z,100361.63
2023-01-10T13:45:21.638Z,100344.66
2023-01-10T13:48:25.846Z,100348.09
2023-01-10T13:51:13.996Z,100333.81
2023-01-10T13:54:00.900Z,100318.19
2023-01-10T13:56:46.648Z,100338.31
2023-01-10T13:59:33.084Z,100346.13
2023-01-10T14:02:19.533Z,100336.38
2023-01-10T14:04:49.043Z,100324.41
2023-01-10T14:07:22.720Z,100304.66
2023-01-10T14:09:51.110Z,100331.25
2023-01-10T14:12:25.296Z,100309.88
2023-01-10T14:14:58.596Z,100317.09
2023-01-10T14:17:27.293Z,100318.19
2023-01-10T14:20:15.783Z,100303.16
2023-01-10T14:22:48.324Z,100290.31
2023-01-10T14:25:20.324Z,100285.34
2023-01-10T14:27:48.972Z,100281.84
2023-01-10T14:30:18.598Z,100286.13
2023-01-10T14:32:49.154Z,100261.88
2023-01-10T14:35:18.981Z,100261.63
2023-01-10T14:37:53.140Z,100262.47
2023-01-10T14:40:27.048Z,100251.75
2023-01-10T14:42:58.441Z,100244.34
2023-01-10T14:45:31.833Z,100234.44
2023-01-10T14:48:00.025Z,100245.19
2023-01-10T14:50:30.156Z,100243.13
2023-01-10T14:52:59.445Z,100231.53
2023-01-10T14:55:28.223Z,100243.25
2023-01-10T14:57:57.099Z,100232.97
2023-01-10T15:00:29.133Z,100230.41
2023-01-10T15:02:57.754Z,100238.81
2023-01-10T15:05:27.070Z,100232.72
2023-01-10T15:07:55.481Z,100236.00
2023-01-10T15:10:25.960Z,100215.03
2023-01-10T15:12:55.111Z,100243.94
2023-01-10T15:15:25.975Z,100220.91
2023-01-10T15:17:54.059Z,100226.47
2023-01-10T15:20:23.348Z,100220.16
2023-01-10T15:22:55.572Z,100205.38
2023-01-10T15:25:30.444Z,100216.09
2023-01-10T15:27:58.711Z,100217.91
2023-01-10T15:30:27.409Z,100210.75
2023-01-10T15:32:55.986Z,100201.97
2023-01-10T15:35:35.165Z,100199.09
2023-01-10T15:38:05.413Z,100194.00
2023-01-10T15:40:36.342Z,100180.59
2023-01-10T15:43:25.589Z,100187.97
2023-01-10T15:45:55.889Z,100176.66
2023-01-10T15:48:28.200Z,100169.34
2023-01-10T15:51:01.315Z,100168.72
2023-01-10T15:53:51.759Z,100159.81
2023-01-10T15:56:22.047Z,100166.16
2023-01-10T15:58:50.107Z,100141.53
2023-01-10T16:01:20.276Z,100151.06
2023-01-10T16:03:50.245Z,100151.06
2023-01-10T16:06:21.957Z,100145.78
2023-01-10T16:08:50.501Z,100143.84
2023-01-10T16:11:41.650Z,100139.25
2023-01-10T16:14:08.895Z,100131.22
2023-01-10T16:16:37.085Z,100127.53
2023-01-10T16:19:05.046Z,100127.75
2023-01-10T16:21:36.132Z,100121.44
2023-01-10T16:24:04.473Z,100137.66
2023-01-10T16:26:34.083Z,100113.97
2023-01-10T16:29:02.053Z,100115.31
2023-01-10T16:31:30.195Z,100098.97
2023-01-10T16:33:58.132Z,100122.31
2023-01-10T16:36:26.052Z,100119.88
2023-01-10T16:38:54.039Z,100101.13
2023-01-10T16:41:39.427Z,100102.19
2023-01-10T16:44:08.672Z,100103.41
2023-01-10T16:46:36.623Z,100114.13
2023-01-10T16:49:06.599Z,100102.41
2023-01-10T16:51:34.785Z,100099.81
2023-01-10T16:54:02.986Z,100093.94
2023-01-10T16:56:31.016Z,100098.97
2023-01-10T16:58:59.032Z,100107.25
2023-01-10T17:01:30.443Z,100101.38
2023-01-10T17:03:58.547Z,100089.06
2023-01-10T17:06:26.954Z,100082.09
2023-01-10T17:08:54.869Z,100081.16
2023-01-10T17:11:25.081Z,100084.16
2023-01-10T17:13:52.988Z,100106.88
2023-01-10T17:16:20.928Z,100096.28
2023-01-10T17:18:50.303Z,100087.59
2023-01-10T17:21:19.323Z,100085.38
2023-01-10T17:23:47.390Z,100097.28
2023-01-10T17:26:17.062Z,100081.69
2023-01-10T17:28:45.929Z,100085.75
2023-01-10T17:31:13.952Z,100086.84
2023-01-10T17:33:41.821Z,100078.28
2023-01-10T17:36:11.518Z,100081.06
2023-01-10T17:38:39.662Z,100081.28
2023-01-10T17:41:08.269Z,100103.75
2023-01-10T17:43:36.152Z,100088.28
2023-01-10T17:46:05.715Z,100095.25
2023-01-10T17:48:34.692Z,100105.06
2023-01-10T17:51:02.803Z,100071.50
2023-01-10T17:53:32.216Z,100096.75
2023-01-10T17:56:01.145Z,100091.81
2023-01-10T17:58:29.305Z,100088.06
2023-01-10T18:00:57.380Z,100081.84
2023-01-10T18:03:25.360Z,100091.63
2023-01-10T18:05:53.715Z,100099.75
2023-01-10T18:08:21.700Z,100099.75
2023-01-10T18:10:51.101Z,100103.50
2023-01-10T18:13:20.488Z,100112.34
2023-01-10T18:15:49.790Z,100123.28
2023-01-10T18:18:21.323Z,100127.97
2023-01-10T18:20:50.340Z,100110.44
2023-01-10T18:23:25.352Z,100110.44
2023-01-10T18:25:55.942Z,100101.00
2023-01-10T18:28:39.511Z,100119.81
2023-01-10T18:31:09.059Z,100153.97
2023-01-10T18:33:36.943Z,100161.22
2023-01-10T18:36:05.069Z,100182.81
2023-01-10T18:38:33.084Z,100206.25
2023-01-10T18:41:02.452Z,100207.44
2023-01-10T18:43:31.279Z,100215.75
2023-01-10T18:46:03.013Z,100232.31
2023-01-10T18:48:31.048Z,100262.88
2023-01-10T18:51:00.198Z,100249.06
2023-01-10T18:53:28.221Z,100240.69
2023-01-10T18:55:56.297Z,100285.34
2023-01-10T18:58:25.941Z,100274.97
2023-01-10T19:00:53.866Z,100294.66
2023-01-10T19:03:21.777Z,100287.97
2023-01-10T19:05:49.729Z,100295.25
2023-01-10T19:08:17.655Z,100310.50
2023-01-10T19:11:11.287Z,100318.63
2023-01-10T19:13:35.114Z,100328.34
2023-01-10T19:16:11.212Z,100327.47
2023-01-10T19:18:39.141Z,100345.34
2023-01-10T19:21:09.110Z,100335.91
2023-01-10T19:23:37.053Z,100366.31
2023-01-10T19:26:05.007Z,100355.84
2023-01-10T19:28:34.353Z,100371.19
2023-01-10T19:31:04.998Z,100372.16
2023-01-10T19:33:34.393Z,100357.47
2023-01-10T19:36:06.002Z,100374.03
2023-01-10T19:38:33.978Z,100391.81
2023-01-10T19:41:02.236Z,100404.00
2023-01-10T19:43:30.192Z,100404.88
2023-01-10T19:45:59.541Z,100403.84
2023-01-10T19:48:27.699Z,100418.22
2023-01-10T19:50:55.592Z,100417.38
2023-01-10T19:53:27.150Z,100423.84
2023-01-10T19:56:01.964Z,100418.53
2023-01-10T19:58:30.299Z,100413.19
2023-01-10T20:00:59.610Z,100430.34
2023-01-10T20:03:27.561Z,100433.13
2023-01-10T20:05:55.439Z,100430.53
2023-01-10T20:08:23.664Z,100437.59
2023-01-10T20:10:51.623Z,100448.28
2023-01-10T20:13:19.497Z,100447.31
2023-01-10T20:15:47.448Z,100442.25
2023-01-10T20:18:19.349Z,100443.22
2023-01-10T20:20:47.234Z,100436.25
2023-01-10T20:23:15.362Z,100443.50
2023-01-10T20:25:43.747Z,100446.06
2023-01-10T20:28:11.644Z,100438.44
2023-01-10T20:30:39.553Z,100441.44
2023-01-10T20:33:07.601Z,100440.00
2023-01-10T20:35:37.593Z,100439.41
2023-01-10T20:38:07.230Z,100443.22
2023-01-10T20:40:35.193Z,100459.59
2023-01-10T20:43:03.091Z,100452.53
2023-01-10T20:45:31.078Z,100466.84
2023-01-10T20:47:58.935Z,100462.28
2023-01-10T20:50:26.851Z,100476.22
2023-01-10T20:52:56.154Z,100471.25
2023-01-10T20:55:24.065Z,100470.13
2023-01-10T20:57:52.066Z,100463.91
2023-01-10T21:00:21.068Z,100472.53
2023-01-10T21:02:49.123Z,100473.66
2023-01-10T21:05:17.099Z,100474.59
2023-01-10T21:07:45.034Z,100481.78
2023-01-10T21:10:15.262Z,100487.19
2023-01-10T21:12:43.317Z,100478.22
2023-01-10T21:15:11.817Z,100481.56
2023-01-10T21:17:41.916Z,100478.84
2023-01-10T21:20:11.555Z,100473.75
2023-01-10T21:22:39.412Z,100483.75
2023-01-10T21:25:07.832Z,100485.66
2023-01-10T21:27:37.257Z,100497.38
2023-01-10T21:30:06.323Z,100504.59
2023-01-10T21:32:34.205Z,100501.16
2023-01-10T21:35:02.146Z,100512.00
2023-01-10T21:37:30.027Z,100518.22
2023-01-10T21:39:59.707Z,100512.81
2023-01-10T21:42:38.262Z,100509.09
2023-01-10T21:45:08.902Z,100527.75
2023-01-10T21:47:38.464Z,100516.91
2023-01-10T21:50:07.103Z,100536.38
2023-01-10T21:52:35.044Z,100531.91
2023-01-10T21:55:02.970Z,100528.09
2023-01-10T21:57:30.876Z,100539.53
2023-01-10T21:59:58.773Z,100536.78
2023-01-10T22:02:29.957Z,100544.22
2023-01-10T22:04:58.176Z,100543.63
2023-01-10T22:07:26.849Z,100556.28
2023-01-10T22:09:54.978Z,100555.69
2023-01-10T22:12:23.899Z,100563.09
2023-01-10T22:14:51.838Z,100564.31
2023-01-10T22:17:19.814Z,100576.91
2023-01-10T22:19:49.178Z,100579.47
2023-01-10T22:22:17.547Z,100589.78
2023-01-10T22:24:47.554Z,100588.66
2023-01-10T22:27:15.511Z,100585.97
2023-01-10T22:29:43.551Z,100594.25
2023-01-10T22:32:11.454Z,100590.13
2023-01-10T22:34:39.375Z,100605.63
2023-01-10T22:37:08.638Z,100612.25
2023-01-10T22:39:36.516Z,100602.72
2023-01-10T22:42:04.474Z,100612.66
2023-01-10T22:44:32.369Z,100615.34
2023-01-10T22:47:00.232Z,100614.41
2023-01-10T22:49:28.138Z,100618.88
2023-01-10T22:51:55.983Z,100603.06
2023-01-10T22:54:25.242Z,100602.44
2023-01-10T22:56:53.084Z,100605.16
2023-01-10T22:59:20.955Z,100600.09
2023-01-10T23:01:48.890Z,100597.88
2023-01-10T23:04:18.108Z,100603.97
2023-01-10T23:06:46.162Z,100603.19
2023-01-10T23:09:14.050Z,100613.97
2023-01-10T23:11:43.436Z,100606.22
2023-01-10T23:14:11.497Z,100625.72
2023-01-10T23:16:39.421Z,100629.44
2023-01-10T23:19:07.322Z,100630.38
2023-01-10T23:21:35.237Z,100639.22
2023-01-10T23:24:03.127Z,100642.81
2023-01-10T23:26:31.029Z,100657.19
2023-01-10T23:29:00.263Z,100661.81
2023-01-10T23:31:29.977Z,100671.53
2023-01-10T23:33:57.986Z,100677.81
2023-01-10T23:36:26.047Z,100692.19
2023-01-10T23:38:53.939Z,100691.50
2023-01-10T23:41:22.057Z,100695.94
2023-01-10T23:43:50.211Z,100705.84
2023-01-10T23:46:19.682Z,100704.97
2023-01-10T23:48:48.451Z,100717.38
2023-01-10T23:51:16.428Z,100722.63
2023-01-10T23:53:44.280Z,100717.28
2023-01-10T23:56:13.232Z,100723.38
2023-01-10T23:58:41.197Z,100723.31
